sensor_id;sensor_type;location;lat;lon;timestamp;P1;durP1;ratioP1;P2;durP2;ratioP2
70049;SDS011;57391;51.306;22.680;2023-04-24T00:01:41;7.80;;;4.30;;
70049;SDS011;57391;51.306;22.680;2023-04-24T00:04:09;6.90;;;4.00;;
70049;SDS011;57391;51.306;22.680;2023-04-24T00:06:37;7.20;;;4.20;;
70049;SDS011;57391;51.306;22.680;2023-04-24T00:09:05;6.30;;;4.00;;
70049;SDS011;57391;51.306;22.680;2023-04-24T00:11:32;6.90;;;4.40;;
70049;SDS011;57391;51.306;22.680;2023-04-24T00:13:59;6.90;;;4.10;;
70049;SDS011;57391;51.306;22.680;2023-04-24T00:16:26;8.00;;;4.70;;
70049;SDS011;57391;51.306;22.680;2023-04-24T00:18:55;6.40;;;4.10;;
70049;SDS011;57391;51.306;22.680;2023-04-24T00:21:22;9.20;;;4.40;;
70049;SDS011;57391;51.306;22.680;2023-04-24T00:23:52;7.00;;;4.20;;
70049;SDS011;57391;51.306;22.680;2023-04-24T00:26:19;7.60;;;4.30;;
70049;SDS011;57391;51.306;22.680;2023-04-24T00:28:47;6.80;;;4.20;;
70049;SDS011;57391;51.306;22.680;2023-04-24T00:31:13;7.30;;;4.30;;
70049;SDS011;57391;51.306;22.680;2023-04-24T00:33:41;7.30;;;4.50;;
70049;SDS011;57391;51.306;22.680;2023-04-24T00:36:07;7.00;;;4.20;;
70049;SDS011;57391;51.306;22.680;2023-04-24T00:38:35;7.60;;;4.60;;
70049;SDS011;57391;51.306;22.680;2023-04-24T00:41:01;7.80;;;4.20;;
70049;SDS011;57391;51.306;22.680;2023-04-24T00:43:29;7.20;;;4.40;;
70049;SDS011;57391;51.306;22.680;2023-04-24T00:45:55;7.70;;;4.70;;
70049;SDS011;57391;51.306;22.680;2023-04-24T00:48:23;8.90;;;4.20;;
70049;SDS011;57391;51.306;22.680;2023-04-24T00:50:51;6.50;;;3.90;;
70049;SDS011;57391;51.306;22.680;2023-04-24T00:53:19;7.90;;;4.10;;
70049;SDS011;57391;51.306;22.680;2023-04-24T00:55:46;7.30;;;3.80;;
70049;SDS011;57391;51.306;22.680;2023-04-24T00:58:13;7.70;;;4.10;;
70049;SDS011;57391;51.306;22.680;2023-04-24T01:00:41;7.20;;;3.90;;
70049;SDS011;57391;51.306;22.680;2023-04-24T01:03:08;8.20;;;4.00;;
70049;SDS011;57391;51.306;22.680;2023-04-24T01:05:36;7.60;;;3.90;;
70049;SDS011;57391;51.306;22.680;2023-04-24T01:08:03;7.00;;;3.80;;
70049;SDS011;57391;51.306;22.680;2023-04-24T01:10:32;6.80;;;3.90;;
70049;SDS011;57391;51.306;22.680;2023-04-24T01:13:00;6.50;;;4.00;;
70049;SDS011;57391;51.306;22.680;2023-04-24T01:15:27;6.90;;;3.90;;
70049;SDS011;57391;51.306;22.680;2023-04-24T01:17:54;6.40;;;3.80;;
70049;SDS011;57391;51.306;22.680;2023-04-24T01:20:24;8.10;;;4.20;;
70049;SDS011;57391;51.306;22.680;2023-04-24T01:22:54;6.40;;;4.00;;
70049;SDS011;57391;51.306;22.680;2023-04-24T01:25:26;7.40;;;4.10;;
70049;SDS011;57391;51.306;22.680;2023-04-24T01:27:57;8.30;;;4.40;;
70049;SDS011;57391;51.306;22.680;2023-04-24T01:30:25;8.90;;;4.10;;
70049;SDS011;57391;51.306;22.680;2023-04-24T01:32:55;9.40;;;4.40;;
70049;SDS011;57391;51.306;22.680;2023-04-24T01:35:22;6.90;;;4.20;;
70049;SDS011;57391;51.306;22.680;2023-04-24T01:37:49;6.70;;;3.90;;
70049;SDS011;57391;51.306;22.680;2023-04-24T01:40:17;6.80;;;4.10;;
70049;SDS011;57391;51.306;22.680;2023-04-24T01:42:45;8.00;;;4.30;;
70049;SDS011;57391;51.306;22.680;2023-04-24T01:45:12;6.40;;;3.90;;
70049;SDS011;57391;51.306;22.680;2023-04-24T01:47:39;10.00;;;4.80;;
70049;SDS011;57391;51.306;22.680;2023-04-24T01:50:07;9.20;;;4.40;;
70049;SDS011;57391;51.306;22.680;2023-04-24T01:52:35;7.40;;;4.30;;
70049;SDS011;57391;51.306;22.680;2023-04-24T01:55:04;7.90;;;4.30;;
70049;SDS011;57391;51.306;22.680;2023-04-24T01:57:32;6.70;;;4.00;;
70049;SDS011;57391;51.306;22.680;2023-04-24T02:00:01;6.90;;;4.00;;
70049;SDS011;57391;51.306;22.680;2023-04-24T02:02:40;6.70;;;4.00;;
70049;SDS011;57391;51.306;22.680;2023-04-24T02:05:08;5.90;;;3.80;;
70049;SDS011;57391;51.306;22.680;2023-04-24T02:07:39;7.90;;;4.10;;
70049;SDS011;57391;51.306;22.680;2023-04-24T02:10:07;8.70;;;4.50;;
70049;SDS011;57391;51.306;22.680;2023-04-24T02:12:34;7.80;;;3.80;;
70049;SDS011;57391;51.306;22.680;2023-04-24T02:15:01;9.20;;;4.30;;
70049;SDS011;57391;51.306;22.680;2023-04-24T02:17:29;7.70;;;4.10;;
70049;SDS011;57391;51.306;22.680;2023-04-24T02:19:57;7.20;;;4.30;;
70049;SDS011;57391;51.306;22.680;2023-04-24T02:22:24;6.60;;;4.10;;
70049;SDS011;57391;51.306;22.680;2023-04-24T02:24:51;8.40;;;4.10;;
70049;SDS011;57391;51.306;22.680;2023-04-24T02:27:18;9.80;;;4.60;;
70049;SDS011;57391;51.306;22.680;2023-04-24T02:29:45;8.00;;;4.30;;
70049;SDS011;57391;51.306;22.680;2023-04-24T02:32:12;6.60;;;4.10;;
70049;SDS011;57391;51.306;22.680;2023-04-24T02:34:43;7.30;;;4.20;;
70049;SDS011;57391;51.306;22.680;2023-04-24T02:37:10;7.40;;;4.30;;
70049;SDS011;57391;51.306;22.680;2023-04-24T02:39:37;6.60;;;3.90;;
70049;SDS011;57391;51.306;22.680;2023-04-24T02:42:04;8.00;;;4.60;;
70049;SDS011;57391;51.306;22.680;2023-04-24T02:44:31;7.30;;;4.40;;
70049;SDS011;57391;51.306;22.680;2023-04-24T02:46:58;6.80;;;4.10;;
70049;SDS011;57391;51.306;22.680;2023-04-24T02:49:25;8.30;;;4.50;;
70049;SDS011;57391;51.306;22.680;2023-04-24T02:51:54;8.30;;;4.20;;
70049;SDS011;57391;51.306;22.680;2023-04-24T02:54:21;8.90;;;4.50;;
70049;SDS011;57391;51.306;22.680;2023-04-24T02:56:48;7.80;;;4.40;;
70049;SDS011;57391;51.306;22.680;2023-04-24T02:59:15;10.10;;;4.40;;
70049;SDS011;57391;51.306;22.680;2023-04-24T03:01:42;7.50;;;4.30;;
70049;SDS011;57391;51.306;22.680;2023-04-24T03:04:09;8.10;;;4.30;;
70049;SDS011;57391;51.306;22.680;2023-04-24T03:06:37;9.40;;;4.90;;
70049;SDS011;57391;51.306;22.680;2023-04-24T03:09:04;7.90;;;4.60;;
70049;SDS011;57391;51.306;22.680;2023-04-24T03:11:32;8.20;;;4.20;;
70049;SDS011;57391;51.306;22.680;2023-04-24T03:13:59;7.90;;;4.60;;
70049;SDS011;57391;51.306;22.680;2023-04-24T03:16:26;7.20;;;4.10;;
70049;SDS011;57391;51.306;22.680;2023-04-24T03:18:55;8.70;;;4.50;;
70049;SDS011;57391;51.306;22.680;2023-04-24T03:21:23;9.30;;;4.70;;
70049;SDS011;57391;51.306;22.680;2023-04-24T03:23:50;9.40;;;5.00;;
70049;SDS011;57391;51.306;22.680;2023-04-24T03:26:17;8.40;;;4.70;;
70049;SDS011;57391;51.306;22.680;2023-04-24T03:28:54;9.00;;;4.70;;
70049;SDS011;57391;51.306;22.680;2023-04-24T03:31:22;7.90;;;5.10;;
70049;SDS011;57391;51.306;22.680;2023-04-24T03:33:50;8.40;;;4.70;;
70049;SDS011;57391;51.306;22.680;2023-04-24T03:36:17;7.40;;;4.30;;
70049;SDS011;57391;51.306;22.680;2023-04-24T03:38:46;10.10;;;4.70;;
70049;SDS011;57391;51.306;22.680;2023-04-24T03:41:24;8.00;;;5.00;;
70049;SDS011;57391;51.306;22.680;2023-04-24T03:43:56;7.70;;;5.20;;
70049;SDS011;57391;51.306;22.680;2023-04-24T03:46:23;8.40;;;5.30;;
70049;SDS011;57391;51.306;22.680;2023-04-24T03:48:54;8.80;;;5.00;;
70049;SDS011;57391;51.306;22.680;2023-04-24T03:51:24;8.50;;;5.00;;
70049;SDS011;57391;51.306;22.680;2023-04-24T03:53:54;8.30;;;5.30;;
70049;SDS011;57391;51.306;22.680;2023-04-24T03:56:21;10.90;;;5.00;;
70049;SDS011;57391;51.306;22.680;2023-04-24T03:58:48;9.10;;;5.40;;
70049;SDS011;57391;51.306;22.680;2023-04-24T04:01:16;10.40;;;5.90;;
70049;SDS011;57391;51.306;22.680;2023-04-24T04:03:53;10.90;;;4.80;;
70049;SDS011;57391;51.306;22.680;2023-04-24T04:06:23;8.70;;;5.30;;
70049;SDS011;57391;51.306;22.680;2023-04-24T04:08:52;8.00;;;4.60;;
70049;SDS011;57391;51.306;22.680;2023-04-24T04:11:19;9.40;;;5.30;;
70049;SDS011;57391;51.306;22.680;2023-04-24T04:13:46;8.60;;;4.70;;
70049;SDS011;57391;51.306;22.680;2023-04-24T04:16:16;9.00;;;4.90;;
70049;SDS011;57391;51.306;22.680;2023-04-24T04:18:47;11.70;;;5.00;;
70049;SDS011;57391;51.306;22.680;2023-04-24T04:21:14;8.50;;;5.30;;
70049;SDS011;57391;51.306;22.680;2023-04-24T04:23:42;9.30;;;5.20;;
70049;SDS011;57391;51.306;22.680;2023-04-24T04:26:23;9.10;;;4.50;;
70049;SDS011;57391;51.306;22.680;2023-04-24T04:29:21;8.90;;;4.50;;
70049;SDS011;57391;51.306;22.680;2023-04-24T04:31:50;8.30;;;5.00;;
70049;SDS011;57391;51.306;22.680;2023-04-24T04:34:17;8.40;;;4.70;;
70049;SDS011;57391;51.306;22.680;2023-04-24T04:36:45;7.60;;;4.80;;
70049;SDS011;57391;51.306;22.680;2023-04-24T04:39:41;7.90;;;4.80;;
70049;SDS011;57391;51.306;22.680;2023-04-24T04:42:13;9.20;;;5.30;;
70049;SDS011;57391;51.306;22.680;2023-04-24T04:44:41;8.80;;;4.70;;
70049;SDS011;57391;51.306;22.680;2023-04-24T04:47:12;8.20;;;5.00;;
70049;SDS011;57391;51.306;22.680;2023-04-24T04:49:40;7.30;;;4.80;;
70049;SDS011;57391;51.306;22.680;2023-04-24T04:52:13;7.40;;;4.70;;
70049;SDS011;57391;51.306;22.680;2023-04-24T04:54:40;7.90;;;4.70;;
70049;SDS011;57391;51.306;22.680;2023-04-24T04:57:07;8.10;;;4.50;;
70049;SDS011;57391;51.306;22.680;2023-04-24T04:59:34;11.90;;;5.00;;
70049;SDS011;57391;51.306;22.680;2023-04-24T05:02:05;6.80;;;4.30;;
70049;SDS011;57391;51.306;22.680;2023-04-24T05:04:32;9.70;;;4.90;;
70049;SDS011;57391;51.306;22.680;2023-04-24T05:06:59;7.40;;;4.90;;
70049;SDS011;57391;51.306;22.680;2023-04-24T05:09:27;8.30;;;4.20;;
70049;SDS011;57391;51.306;22.680;2023-04-24T05:12:00;8.80;;;4.50;;
70049;SDS011;57391;51.306;22.680;2023-04-24T05:14:30;7.40;;;4.30;;
70049;SDS011;57391;51.306;22.680;2023-04-24T05:16:58;8.30;;;4.70;;
70049;SDS011;57391;51.306;22.680;2023-04-24T05:19:27;8.40;;;4.50;;
70049;SDS011;57391;51.306;22.680;2023-04-24T05:21:54;9.40;;;4.80;;
70049;SDS011;57391;51.306;22.680;2023-04-24T05:24:22;9.40;;;5.30;;
70049;SDS011;57391;51.306;22.680;2023-04-24T05:27:09;7.30;;;4.70;;
70049;SDS011;57391;51.306;22.680;2023-04-24T05:29:39;7.50;;;4.20;;
70049;SDS011;57391;51.306;22.680;2023-04-24T05:32:06;8.00;;;4.70;;
70049;SDS011;57391;51.306;22.680;2023-04-24T05:34:35;7.70;;;4.20;;
70049;SDS011;57391;51.306;22.680;2023-04-24T05:37:03;10.50;;;5.30;;
70049;SDS011;57391;51.306;22.680;2023-04-24T05:39:35;7.90;;;4.50;;
70049;SDS011;57391;51.306;22.680;2023-04-24T05:42:02;7.80;;;4.50;;
70049;SDS011;57391;51.306;22.680;2023-04-24T05:44:30;9.10;;;4.70;;
70049;SDS011;57391;51.306;22.680;2023-04-24T05:46:57;7.20;;;4.60;;
70049;SDS011;57391;51.306;22.680;2023-04-24T05:49:25;7.80;;;4.40;;
70049;SDS011;57391;51.306;22.680;2023-04-24T05:51:52;7.80;;;4.50;;
70049;SDS011;57391;51.306;22.680;2023-04-24T05:54:19;6.60;;;4.20;;
70049;SDS011;57391;51.306;22.680;2023-04-24T05:56:46;8.60;;;4.70;;
70049;SDS011;57391;51.306;22.680;2023-04-24T05:59:18;9.00;;;4.70;;
70049;SDS011;57391;51.306;22.680;2023-04-24T06:01:46;7.30;;;4.30;;
70049;SDS011;57391;51.306;22.680;2023-04-24T06:04:18;6.70;;;4.40;;
70049;SDS011;57391;51.306;22.680;2023-04-24T06:06:45;7.30;;;4.40;;
70049;SDS011;57391;51.306;22.680;2023-04-24T06:09:13;6.90;;;3.60;;
70049;SDS011;57391;51.306;22.680;2023-04-24T06:11:40;8.40;;;4.40;;
70049;SDS011;57391;51.306;22.680;2023-04-24T06:14:09;6.50;;;4.20;;
70049;SDS011;57391;51.306;22.680;2023-04-24T06:16:41;8.50;;;4.60;;
70049;SDS011;57391;51.306;22.680;2023-04-24T06:19:17;7.00;;;4.60;;
70049;SDS011;57391;51.306;22.680;2023-04-24T06:21:44;8.80;;;5.00;;
70049;SDS011;57391;51.306;22.680;2023-04-24T06:24:14;8.80;;;4.60;;
70049;SDS011;57391;51.306;22.680;2023-04-24T06:26:42;8.60;;;4.50;;
70049;SDS011;57391;51.306;22.680;2023-04-24T06:29:09;7.30;;;4.00;;
70049;SDS011;57391;51.306;22.680;2023-04-24T06:31:36;8.90;;;5.40;;
70049;SDS011;57391;51.306;22.680;2023-04-24T06:34:04;9.00;;;4.30;;
70049;SDS011;57391;51.306;22.680;2023-04-24T06:36:32;8.00;;;4.90;;
70049;SDS011;57391;51.306;22.680;2023-04-24T06:39:01;7.90;;;4.50;;
70049;SDS011;57391;51.306;22.680;2023-04-24T06:41:29;9.10;;;5.10;;
70049;SDS011;57391;51.306;22.680;2023-04-24T06:43:56;8.10;;;4.90;;
70049;SDS011;57391;51.306;22.680;2023-04-24T06:46:23;8.20;;;4.90;;
70049;SDS011;57391;51.306;22.680;2023-04-24T06:48:53;7.80;;;4.70;;
70049;SDS011;57391;51.306;22.680;2023-04-24T06:51:24;7.90;;;4.70;;
70049;SDS011;57391;51.306;22.680;2023-04-24T06:53:53;9.20;;;4.70;;
70049;SDS011;57391;51.306;22.680;2023-04-24T06:56:20;7.30;;;4.70;;
70049;SDS011;57391;51.306;22.680;2023-04-24T06:58:48;8.80;;;4.60;;
70049;SDS011;57391;51.306;22.680;2023-04-24T07:01:15;8.90;;;4.50;;
70049;SDS011;57391;51.306;22.680;2023-04-24T07:03:43;8.50;;;4.70;;
70049;SDS011;57391;51.306;22.680;2023-04-24T07:06:10;6.20;;;4.40;;
70049;SDS011;57391;51.306;22.680;2023-04-24T07:08:37;9.20;;;5.00;;
70049;SDS011;57391;51.306;22.680;2023-04-24T07:11:05;6.70;;;4.70;;
70049;SDS011;57391;51.306;22.680;2023-04-24T07:13:33;7.60;;;4.30;;
70049;SDS011;57391;51.306;22.680;2023-04-24T07:16:02;7.40;;;4.40;;
70049;SDS011;57391;51.306;22.680;2023-04-24T07:18:30;7.40;;;4.20;;
70049;SDS011;57391;51.306;22.680;2023-04-24T07:20:57;8.10;;;4.50;;
70049;SDS011;57391;51.306;22.680;2023-04-24T07:23:25;7.30;;;4.60;;
70049;SDS011;57391;51.306;22.680;2023-04-24T07:25:52;8.00;;;4.20;;
70049;SDS011;57391;51.306;22.680;2023-04-24T07:28:20;8.30;;;4.50;;
70049;SDS011;57391;51.306;22.680;2023-04-24T07:30:47;6.50;;;4.40;;
70049;SDS011;57391;51.306;22.680;2023-04-24T07:33:14;6.20;;;4.20;;
70049;SDS011;57391;51.306;22.680;2023-04-24T07:35:42;7.30;;;4.60;;
70049;SDS011;57391;51.306;22.680;2023-04-24T07:38:09;7.60;;;4.40;;
70049;SDS011;57391;51.306;22.680;2023-04-24T07:40:36;7.50;;;4.40;;
70049;SDS011;57391;51.306;22.680;2023-04-24T07:43:03;8.30;;;4.00;;
70049;SDS011;57391;51.306;22.680;2023-04-24T07:45:30;8.70;;;4.30;;
70049;SDS011;57391;51.306;22.680;2023-04-24T07:47:57;6.70;;;4.30;;
70049;SDS011;57391;51.306;22.680;2023-04-24T07:50:25;8.80;;;4.70;;
70049;SDS011;57391;51.306;22.680;2023-04-24T07:52:51;7.60;;;4.30;;
70049;SDS011;57391;51.306;22.680;2023-04-24T07:55:19;9.20;;;4.20;;
70049;SDS011;57391;51.306;22.680;2023-04-24T07:57:45;7.10;;;4.30;;
70049;SDS011;57391;51.306;22.680;2023-04-24T08:00:13;6.30;;;4.40;;
70049;SDS011;57391;51.306;22.680;2023-04-24T08:02:41;8.70;;;4.30;;
70049;SDS011;57391;51.306;22.680;2023-04-24T08:05:08;6.80;;;4.00;;
70049;SDS011;57391;51.306;22.680;2023-04-24T08:07:35;7.80;;;4.60;;
70049;SDS011;57391;51.306;22.680;2023-04-24T08:10:03;7.30;;;4.60;;
70049;SDS011;57391;51.306;22.680;2023-04-24T08:12:31;7.90;;;4.20;;
70049;SDS011;57391;51.306;22.680;2023-04-24T08:14:58;7.20;;;4.20;;
70049;SDS011;57391;51.306;22.680;2023-04-24T08:17:25;7.40;;;4.30;;
70049;SDS011;57391;51.306;22.680;2023-04-24T08:19:52;6.80;;;4.40;;
70049;SDS011;57391;51.306;22.680;2023-04-24T08:22:25;6.30;;;4.40;;
70049;SDS011;57391;51.306;22.680;2023-04-24T08:24:53;7.00;;;4.40;;
70049;SDS011;57391;51.306;22.680;2023-04-24T08:27:20;8.00;;;4.40;;
70049;SDS011;57391;51.306;22.680;2023-04-24T08:29:47;6.70;;;4.00;;
70049;SDS011;57391;51.306;22.680;2023-04-24T08:32:14;8.10;;;4.30;;
70049;SDS011;57391;51.306;22.680;2023-04-24T08:34:41;7.50;;;4.60;;
70049;SDS011;57391;51.306;22.680;2023-04-24T08:37:09;7.50;;;4.50;;
70049;SDS011;57391;51.306;22.680;2023-04-24T08:39:36;9.00;;;4.70;;
70049;SDS011;57391;51.306;22.680;2023-04-24T08:42:05;7.90;;;4.30;;
70049;SDS011;57391;51.306;22.680;2023-04-24T08:44:35;7.50;;;4.70;;
70049;SDS011;57391;51.306;22.680;2023-04-24T08:47:03;6.90;;;4.50;;
70049;SDS011;57391;51.306;22.680;2023-04-24T08:49:31;7.20;;;4.30;;
70049;SDS011;57391;51.306;22.680;2023-04-24T08:51:58;7.20;;;4.60;;
70049;SDS011;57391;51.306;22.680;2023-04-24T08:54:26;7.30;;;4.60;;
70049;SDS011;57391;51.306;22.680;2023-04-24T08:56:55;6.40;;;4.30;;
70049;SDS011;57391;51.306;22.680;2023-04-24T08:59:27;7.60;;;4.40;;
70049;SDS011;57391;51.306;22.680;2023-04-24T09:01:55;6.80;;;4.40;;
70049;SDS011;57391;51.306;22.680;2023-04-24T09:04:24;7.00;;;4.70;;
70049;SDS011;57391;51.306;22.680;2023-04-24T09:06:57;8.50;;;4.40;;
70049;SDS011;57391;51.306;22.680;2023-04-24T09:09:25;7.10;;;4.30;;
70049;SDS011;57391;51.306;22.680;2023-04-24T09:11:52;10.10;;;4.80;;
70049;SDS011;57391;51.306;22.680;2023-04-24T09:14:23;7.20;;;5.00;;
70049;SDS011;57391;51.306;22.680;2023-04-24T09:16:51;8.00;;;4.40;;
70049;SDS011;57391;51.306;22.680;2023-04-24T09:19:18;9.20;;;4.70;;
70049;SDS011;57391;51.306;22.680;2023-04-24T09:21:46;7.10;;;4.30;;
70049;SDS011;57391;51.306;22.680;2023-04-24T09:24:18;7.50;;;4.80;;
70049;SDS011;57391;51.306;22.680;2023-04-24T09:26:57;6.20;;;4.30;;
70049;SDS011;57391;51.306;22.680;2023-04-24T09:29:30;6.60;;;4.30;;
70049;SDS011;57391;51.306;22.680;2023-04-24T09:32:17;6.30;;;4.30;;
70049;SDS011;57391;51.306;22.680;2023-04-24T09:34:48;6.90;;;4.40;;
70049;SDS011;57391;51.306;22.680;2023-04-24T09:37:28;8.20;;;4.90;;
70049;SDS011;57391;51.306;22.680;2023-04-24T09:40:10;7.20;;;4.60;;
70049;SDS011;57391;51.306;22.680;2023-04-24T09:42:53;6.60;;;4.30;;
70049;SDS011;57391;51.306;22.680;2023-04-24T09:45:27;10.30;;;5.00;;
70049;SDS011;57391;51.306;22.680;2023-04-24T09:47:55;6.70;;;4.20;;
70049;SDS011;57391;51.306;22.680;2023-04-24T09:50:22;5.40;;;3.80;;
70049;SDS011;57391;51.306;22.680;2023-04-24T09:53:00;10.90;;;5.40;;
70049;SDS011;57391;51.306;22.680;2023-04-24T09:55:29;7.20;;;4.40;;
70049;SDS011;57391;51.306;22.680;2023-04-24T09:57:58;6.40;;;3.90;;
70049;SDS011;57391;51.306;22.680;2023-04-24T10:00:32;6.00;;;4.20;;
70049;SDS011;57391;51.306;22.680;2023-04-24T10:03:04;5.90;;;3.80;;
70049;SDS011;57391;51.306;22.680;2023-04-24T10:05:36;6.70;;;4.60;;
70049;SDS011;57391;51.306;22.680;2023-04-24T10:08:06;6.40;;;4.50;;
70049;SDS011;57391;51.306;22.680;2023-04-24T10:10:38;7.00;;;4.50;;
70049;SDS011;57391;51.306;22.680;2023-04-24T10:13:09;6.10;;;3.80;;
70049;SDS011;57391;51.306;22.680;2023-04-24T10:15:38;5.50;;;3.50;;
70049;SDS011;57391;51.306;22.680;2023-04-24T10:18:08;8.10;;;4.10;;
70049;SDS011;57391;51.306;22.680;2023-04-24T10:20:38;6.50;;;4.20;;
70049;SDS011;57391;51.306;22.680;2023-04-24T10:23:07;6.50;;;4.10;;
70049;SDS011;57391;51.306;22.680;2023-04-24T10:25:35;6.20;;;3.80;;
70049;SDS011;57391;51.306;22.680;2023-04-24T10:28:04;7.30;;;4.30;;
70049;SDS011;57391;51.306;22.680;2023-04-24T10:30:33;6.80;;;4.10;;
70049;SDS011;57391;51.306;22.680;2023-04-24T10:33:05;6.80;;;4.00;;
70049;SDS011;57391;51.306;22.680;2023-04-24T10:35:40;6.00;;;3.30;;
70049;SDS011;57391;51.306;22.680;2023-04-24T10:38:16;6.00;;;3.60;;
70049;SDS011;57391;51.306;22.680;2023-04-24T10:40:51;8.00;;;3.90;;
70049;SDS011;57391;51.306;22.680;2023-04-24T10:43:18;7.00;;;3.70;;
70049;SDS011;57391;51.306;22.680;2023-04-24T10:46:05;6.10;;;3.90;;
70049;SDS011;57391;51.306;22.680;2023-04-24T10:48:33;6.60;;;3.90;;
70049;SDS011;57391;51.306;22.680;2023-04-24T10:51:01;7.40;;;4.50;;
70049;SDS011;57391;51.306;22.680;2023-04-24T10:53:30;6.80;;;3.50;;
70049;SDS011;57391;51.306;22.680;2023-04-24T10:56:04;6.50;;;4.00;;
70049;SDS011;57391;51.306;22.680;2023-04-24T11:01:27;5.80;;;3.60;;
70049;SDS011;57391;51.306;22.680;2023-04-24T11:04:01;5.80;;;3.50;;
70049;SDS011;57391;51.306;22.680;2023-04-24T11:06:34;6.20;;;3.80;;
70049;SDS011;57391;51.306;22.680;2023-04-24T11:09:10;6.80;;;3.60;;
70049;SDS011;57391;51.306;22.680;2023-04-24T11:11:46;5.10;;;3.20;;
70049;SDS011;57391;51.306;22.680;2023-04-24T11:14:14;7.50;;;3.80;;
70049;SDS011;57391;51.306;22.680;2023-04-24T11:17:00;5.70;;;3.60;;
70049;SDS011;57391;51.306;22.680;2023-04-24T11:19:27;7.20;;;3.70;;
70049;SDS011;57391;51.306;22.680;2023-04-24T11:27:22;5.30;;;3.50;;
70049;SDS011;57391;51.306;22.680;2023-04-24T11:32:33;5.10;;;3.80;;
70049;SDS011;57391;51.306;22.680;2023-04-24T11:37:38;5.30;;;3.60;;
70049;SDS011;57391;51.306;22.680;2023-04-24T11:40:11;6.00;;;3.60;;
70049;SDS011;57391;51.306;22.680;2023-04-24T11:42:47;6.30;;;3.80;;
70049;SDS011;57391;51.306;22.680;2023-04-24T11:47:44;6.00;;;3.80;;
70049;SDS011;57391;51.306;22.680;2023-04-24T11:50:13;7.50;;;4.00;;
70049;SDS011;57391;51.306;22.680;2023-04-24T11:52:43;5.90;;;3.70;;
70049;SDS011;57391;51.306;22.680;2023-04-24T11:57:46;6.20;;;3.60;;
70049;SDS011;57391;51.306;22.680;2023-04-24T12:00:16;6.60;;;3.60;;
70049;SDS011;57391;51.306;22.680;2023-04-24T12:02:45;6.80;;;4.00;;
70049;SDS011;57391;51.306;22.680;2023-04-24T12:05:24;6.00;;;3.80;;
70049;SDS011;57391;51.306;22.680;2023-04-24T12:07:53;7.50;;;3.50;;
70049;SDS011;57391;51.306;22.680;2023-04-24T12:10:24;7.80;;;3.50;;
70049;SDS011;57391;51.306;22.680;2023-04-24T12:12:53;6.80;;;3.90;;
70049;SDS011;57391;51.306;22.680;2023-04-24T12:15:22;5.50;;;3.70;;
70049;SDS011;57391;51.306;22.680;2023-04-24T12:17:51;5.60;;;3.50;;
70049;SDS011;57391;51.306;22.680;2023-04-24T12:20:31;5.90;;;3.70;;
70049;SDS011;57391;51.306;22.680;2023-04-24T12:23:00;5.20;;;3.60;;
70049;SDS011;57391;51.306;22.680;2023-04-24T12:25:29;5.70;;;3.40;;
70049;SDS011;57391;51.306;22.680;2023-04-24T12:30:32;6.40;;;3.90;;
70049;SDS011;57391;51.306;22.680;2023-04-24T12:33:02;6.30;;;3.70;;
70049;SDS011;57391;51.306;22.680;2023-04-24T12:35:32;5.90;;;3.90;;
70049;SDS011;57391;51.306;22.680;2023-04-24T12:38:07;7.00;;;3.80;;
70049;SDS011;57391;51.306;22.680;2023-04-24T12:40:39;6.60;;;3.70;;
70049;SDS011;57391;51.306;22.680;2023-04-24T12:43:15;5.20;;;3.20;;
70049;SDS011;57391;51.306;22.680;2023-04-24T12:45:45;6.40;;;3.50;;
70049;SDS011;57391;51.306;22.680;2023-04-24T12:48:12;7.90;;;4.10;;
70049;SDS011;57391;51.306;22.680;2023-04-24T12:50:40;5.00;;;3.40;;
70049;SDS011;57391;51.306;22.680;2023-04-24T12:53:08;6.30;;;3.50;;
70049;SDS011;57391;51.306;22.680;2023-04-24T12:55:37;6.70;;;3.80;;
70049;SDS011;57391;51.306;22.680;2023-04-24T12:58:04;6.70;;;3.80;;
70049;SDS011;57391;51.306;22.680;2023-04-24T13:00:31;6.80;;;3.40;;
70049;SDS011;57391;51.306;22.680;2023-04-24T13:02:59;8.90;;;4.00;;
70049;SDS011;57391;51.306;22.680;2023-04-24T13:05:26;6.70;;;3.80;;
70049;SDS011;57391;51.306;22.680;2023-04-24T13:07:53;8.40;;;3.80;;
70049;SDS011;57391;51.306;22.680;2023-04-24T13:10:20;5.50;;;3.80;;
70049;SDS011;57391;51.306;22.680;2023-04-24T13:12:47;7.00;;;3.60;;
70049;SDS011;57391;51.306;22.680;2023-04-24T13:15:14;5.20;;;3.50;;
70049;SDS011;57391;51.306;22.680;2023-04-24T13:17:41;6.70;;;3.60;;
70049;SDS011;57391;51.306;22.680;2023-04-24T13:20:08;7.00;;;3.50;;
70049;SDS011;57391;51.306;22.680;2023-04-24T13:22:36;6.80;;;3.80;;
70049;SDS011;57391;51.306;22.680;2023-04-24T13:25:04;6.30;;;3.40;;
70049;SDS011;57391;51.306;22.680;2023-04-24T13:27:33;7.00;;;3.80;;
70049;SDS011;57391;51.306;22.680;2023-04-24T13:29:59;5.80;;;3.70;;
70049;SDS011;57391;51.306;22.680;2023-04-24T13:32:26;6.20;;;3.80;;
70049;SDS011;57391;51.306;22.680;2023-04-24T13:34:56;5.70;;;3.50;;
70049;SDS011;57391;51.306;22.680;2023-04-24T13:37:23;5.50;;;3.30;;
70049;SDS011;57391;51.306;22.680;2023-04-24T13:39:50;8.00;;;4.00;;
70049;SDS011;57391;51.306;22.680;2023-04-24T13:42:17;7.20;;;4.00;;
70049;SDS011;57391;51.306;22.680;2023-04-24T13:44:45;7.40;;;3.90;;
70049;SDS011;57391;51.306;22.680;2023-04-24T13:47:12;6.10;;;3.40;;
70049;SDS011;57391;51.306;22.680;2023-04-24T13:49:39;6.00;;;3.80;;
70049;SDS011;57391;51.306;22.680;2023-04-24T13:52:07;5.30;;;3.20;;
70049;SDS011;57391;51.306;22.680;2023-04-24T13:54:38;7.00;;;3.70;;
70049;SDS011;57391;51.306;22.680;2023-04-24T13:57:08;6.30;;;3.50;;
70049;SDS011;57391;51.306;22.680;2023-04-24T13:59:35;6.70;;;3.50;;
70049;SDS011;57391;51.306;22.680;2023-04-24T14:02:03;7.20;;;3.50;;
70049;SDS011;57391;51.306;22.680;2023-04-24T14:04:31;6.00;;;3.70;;
70049;SDS011;57391;51.306;22.680;2023-04-24T14:06:58;6.20;;;3.40;;
70049;SDS011;57391;51.306;22.680;2023-04-24T14:09:25;5.30;;;3.40;;
70049;SDS011;57391;51.306;22.680;2023-04-24T14:11:53;5.80;;;3.90;;
70049;SDS011;57391;51.306;22.680;2023-04-24T14:14:20;5.30;;;3.60;;
70049;SDS011;57391;51.306;22.680;2023-04-24T14:16:48;8.80;;;4.10;;
70049;SDS011;57391;51.306;22.680;2023-04-24T14:19:15;7.30;;;3.70;;
70049;SDS011;57391;51.306;22.680;2023-04-24T14:21:42;5.80;;;3.80;;
70049;SDS011;57391;51.306;22.680;2023-04-24T14:24:10;7.60;;;3.90;;
70049;SDS011;57391;51.306;22.680;2023-04-24T14:26:37;5.40;;;3.30;;
70049;SDS011;57391;51.306;22.680;2023-04-24T14:29:04;6.20;;;3.90;;
70049;SDS011;57391;51.306;22.680;2023-04-24T14:31:33;7.10;;;3.90;;
70049;SDS011;57391;51.306;22.680;2023-04-24T14:34:00;7.40;;;4.00;;
70049;SDS011;57391;51.306;22.680;2023-04-24T14:36:27;33.20;;;5.00;;
70049;SDS011;57391;51.306;22.680;2023-04-24T14:38:54;4.80;;;3.30;;
70049;SDS011;57391;51.306;22.680;2023-04-24T14:41:21;7.20;;;3.70;;
70049;SDS011;57391;51.306;22.680;2023-04-24T14:43:48;6.20;;;3.40;;
70049;SDS011;57391;51.306;22.680;2023-04-24T14:46:16;7.10;;;3.70;;
70049;SDS011;57391;51.306;22.680;2023-04-24T14:48:43;6.30;;;3.80;;
70049;SDS011;57391;51.306;22.680;2023-04-24T14:51:10;5.80;;;4.10;;
70049;SDS011;57391;51.306;22.680;2023-04-24T14:53:37;6.60;;;3.70;;
70049;SDS011;57391;51.306;22.680;2023-04-24T14:56:05;6.80;;;3.50;;
70049;SDS011;57391;51.306;22.680;2023-04-24T14:58:32;6.90;;;3.40;;
70049;SDS011;57391;51.306;22.680;2023-04-24T15:00:59;6.30;;;3.80;;
70049;SDS011;57391;51.306;22.680;2023-04-24T15:03:26;7.30;;;4.20;;
70049;SDS011;57391;51.306;22.680;2023-04-24T15:05:54;7.00;;;3.50;;